Time;durP1;ratioP1;P1;durP2;ratioP2;P2;SDS_P1;SDS_P2;PMS_P1;PMS_P2;Temp;Humidity;BMP_temperature;BMP_pressure;BME280_temperature;BME280_humidity;BME280_pressure;Samples;Min_cycle;Max_cycle;Signal;HPM_P1;HPM_P2
2022/12/24 00:02:06;;;;;;;;;7.25;4.00;;;;;13.99;61.08;100676.19;5043014;28;46016;-68
2022/12/24 00:04:31;;;;;;;;;6.25;4.50;;;;;14.03;61.04;100687.44;5046377;28;46553;-68
2022/12/24 00:06:57;;;;;;;;;15.00;4.00;;;;;14.01;61.23;100689.28;5034135;28;52019;-68
2022/12/24 00:09:22;;;;;;;;;11.25;5.00;;;;;13.98;61.03;100686.78;5043296;28;57742;-68
2022/12/24 00:11:48;;;;;;;;;10.00;5.00;;;;;13.97;61.31;100691.19;5038739;28;59547;-68
2022/12/24 00:14:13;;;;;;;;;7.00;4.50;;;;;13.95;61.54;100692.16;5046400;28;62124;-69
2022/12/24 00:16:38;;;;;;;;;11.75;6.25;;;;;13.95;61.16;100684.25;5048358;28;62733;-68
2022/12/24 00:19:04;;;;;;;;;7.00;4.00;;;;;13.96;61.53;100686.00;5049322;28;61340;-68
2022/12/24 00:21:29;;;;;;;;;10.75;6.25;;;;;13.94;61.56;100683.41;5046594;28;45735;-68
2022/12/24 00:23:54;;;;;;;;;10.25;4.75;;;;;13.91;61.04;100675.66;5039754;28;45800;-68
2022/12/24 00:26:20;;;;;;;;;6.00;4.00;;;;;13.90;61.11;100689.75;5039586;28;54972;-69
2022/12/24 00:28:45;;;;;;;;;8.25;5.25;;;;;13.87;61.37;100681.97;5044693;28;48047;-69
2022/12/24 00:31:13;;;;;;;;;16.00;5.75;;;;;13.84;61.19;100682.94;5048673;28;51938;-69
2022/12/24 00:33:39;;;;;;;;;10.50;6.00;;;;;13.87;61.37;100687.22;5042849;28;45777;-68
2022/12/24 00:36:05;;;;;;;;;6.50;4.50;;;;;13.85;61.02;100687.28;5047860;28;45269;-68
2022/12/24 00:38:30;;;;;;;;;11.50;4.25;;;;;13.85;61.20;100689.06;5042081;28;45569;-68
2022/12/24 00:41:00;;;;;;;;;7.50;5.00;;;;;13.83;61.31;100690.91;5047261;28;46279;-67
2022/12/24 00:43:26;;;;;;;;;9.00;3.00;;;;;13.81;61.15;100703.25;5042337;28;45901;-67
2022/12/24 00:45:52;;;;;;;;;10.25;4.00;;;;;13.81;61.31;100708.50;5041322;28;45438;-67
2022/12/24 00:48:17;;;;;;;;;7.75;6.00;;;;;13.81;61.57;100713.78;5042820;28;53122;-67
2022/12/24 00:50:42;;;;;;;;;9.25;5.25;;;;;13.82;61.46;100712.88;5043039;28;65833;-67
2022/12/24 00:53:08;;;;;;;;;7.50;3.00;;;;;13.80;61.23;100722.59;5044534;28;61591;-67
2022/12/24 00:55:33;;;;;;;;;6.75;4.50;;;;;13.76;61.29;100706.09;5054712;28;57099;-67
2022/12/24 00:57:58;;;;;;;;;12.25;4.00;;;;;13.76;61.64;100706.09;5044214;28;59630;-67
2022/12/24 01:00:24;;;;;;;;;9.50;5.00;;;;;13.76;61.66;100710.50;5051179;28;53010;-68
2022/12/24 01:02:49;;;;;;;;;12.00;4.00;;;;;13.77;61.53;100730.59;5048589;28;45379;-67
2022/12/24 01:05:15;;;;;;;;;5.00;4.25;;;;;13.77;61.63;100736.72;5045647;28;56372;-68
2022/12/24 01:07:42;;;;;;;;;8.25;4.00;;;;;13.78;61.75;100737.59;5049255;28;45656;-67
2022/12/24 01:10:09;;;;;;;;;11.25;5.00;;;;;13.78;61.47;100743.69;5051324;28;46429;-67
2022/12/24 01:12:35;;;;;;;;;10.00;4.00;;;;;13.78;61.95;100725.28;5048136;28;45791;-67
2022/12/24 01:15:00;;;;;;;;;8.00;4.75;;;;;13.78;61.45;100713.91;5046333;28;45405;-67
2022/12/24 01:17:25;;;;;;;;;7.50;4.00;;;;;13.78;61.70;100716.53;5054618;28;58397;-68
2022/12/24 01:19:51;;;;;;;;;15.00;3.75;;;;;13.77;61.55;100722.72;5041916;28;62414;-68
2022/12/24 01:22:16;;;;;;;;;10.00;5.75;;;;;13.76;61.50;100716.59;5043061;28;45544;-67
2022/12/24 01:24:42;;;;;;;;;10.00;4.00;;;;;13.75;61.45;100698.25;5053448;28;60722;-67
2022/12/24 01:27:07;;;;;;;;;11.75;6.00;;;;;13.78;61.83;100700.75;5052819;28;45441;-68
2022/12/24 01:29:33;;;;;;;;;8.50;5.50;;;;;13.74;61.50;100714.94;5047133;28;46291;-67
2022/12/24 01:31:58;;;;;;;;;9.00;3.25;;;;;13.72;61.40;100714.16;5051537;28;59171;-68
2022/12/24 01:34:23;;;;;;;;;17.00;6.00;;;;;13.72;61.66;100735.19;5045625;28;45501;-68
2022/12/24 01:36:49;;;;;;;;;7.50;4.50;;;;;13.67;61.85;100733.59;5044342;28;45275;-68
2022/12/24 01:39:14;;;;;;;;;14.50;6.25;;;;;13.65;61.98;100724.06;5047645;28;45399;-68
2022/12/24 01:44:25;;;;;;;;;10.00;6.75;;;;;13.65;62.03;100721.41;5042636;28;45457;-67
2022/12/24 01:47:12;;;;;;;;;12.25;5.00;;;;;13.65;62.34;100724.06;5049447;28;45558;-68
2022/12/24 01:49:42;;;;;;;;;10.50;6.25;;;;;13.65;62.23;100740.72;5052901;28;46283;-68
2022/12/24 01:52:17;;;;;;;;;11.25;6.00;;;;;13.65;62.18;100745.97;5045218;28;45516;-67
2022/12/24 01:54:47;;;;;;;;;10.50;4.75;;;;;13.65;62.03;100734.56;5013701;28;45420;-68
2022/12/24 01:57:23;;;;;;;;;11.50;5.00;;;;;13.64;62.44;100738.97;5054070;28;45495;-68
2022/12/24 01:59:52;;;;;;;;;12.75;5.25;;;;;13.63;62.60;100750.44;5041897;28;45276;-67
2022/12/24 02:02:18;;;;;;;;;13.00;5.00;;;;;13.63;62.67;100755.69;5050221;28;45407;-67
2022/12/24 02:04:50;;;;;;;;;14.75;5.00;;;;;13.63;62.57;100758.31;5044027;28;57422;-67
2022/12/24 02:07:15;;;;;;;;;13.75;7.25;;;;;13.65;62.45;100760.88;5046700;28;45337;-67
2022/12/24 02:09:41;;;;;;;;;12.00;7.00;;;;;13.67;62.58;100766.94;5044564;28;68123;-68
2022/12/24 02:12:07;;;;;;;;;9.00;4.25;;;;;13.67;62.25;100780.09;5047230;28;58107;-68
2022/12/24 02:14:33;;;;;;;;;7.25;3.75;;;;;13.66;62.33;100768.69;5030487;28;45495;-67
2022/12/24 02:17:12;;;;;;;;;12.50;7.75;;;;;13.67;62.60;100765.16;5047759;28;45338;-67
2022/12/24 02:20:00;;;;;;;;;10.75;5.50;;;;;13.67;62.32;100761.69;5044715;28;45380;-67
2022/12/24 02:22:38;;;;;;;;;11.50;4.75;;;;;13.64;62.61;100759.16;5043371;28;45466;-67
2022/12/24 02:25:12;;;;;;;;;11.75;5.00;;;;;13.64;62.63;100760.00;5042605;28;45377;-68
2022/12/24 02:27:46;;;;;;;;;9.50;6.00;;;;;13.63;62.24;100754.81;5049894;28;45545;-67
2022/12/24 02:30:23;;;;;;;;;6.25;4.50;;;;;13.60;62.46;100755.81;5048863;28;45407;-68
2022/12/24 02:33:10;;;;;;;;;10.25;4.00;;;;;13.61;62.47;100765.38;5052997;28;45359;-67
2022/12/24 02:35:53;;;;;;;;;8.50;4.25;;;;;13.61;62.44;100775.06;5050515;28;45477;-67
2022/12/24 02:38:46;;;;;;;;;8.00;5.50;;;;;13.59;62.74;100767.22;5044502;28;45473;-67
2022/12/24 02:41:19;;;;;;;;;9.25;6.00;;;;;13.58;62.69;100757.66;5040050;28;45542;-68
2022/12/24 02:43:45;;;;;;;;;11.25;4.75;;;;;13.57;62.88;100742.78;5041661;28;45807;-67
2022/12/24 02:46:18;;;;;;;;;7.00;5.00;;;;;13.58;62.82;100746.25;5049186;28;45340;-68
2022/12/24 02:48:46;;;;;;;;;9.75;5.25;;;;;13.60;63.03;100755.81;5042377;28;45212;-67
2022/12/24 02:51:11;;;;;;;;;13.75;5.50;;;;;13.61;62.77;100765.38;5050397;28;46764;-67
2022/12/24 02:53:38;;;;;;;;;6.00;5.00;;;;;13.63;63.08;100773.22;5045933;28;45399;-67
2022/12/24 02:56:03;;;;;;;;;14.75;5.00;;;;;13.63;62.75;100779.34;5044489;28;45370;-67
2022/12/24 02:58:55;;;;;;;;;12.00;6.67;;;;;13.65;63.16;100761.75;5046248;28;45450;-68
2022/12/24 03:01:21;;;;;;;;;13.00;4.00;;;;;13.66;62.88;100755.56;5040344;28;47377;-67
2022/12/24 03:04:20;;;;;;;;;7.67;4.67;;;;;13.67;62.98;100749.38;5047503;28;45391;-67
2022/12/24 03:07:05;;;;;;;;;9.50;5.00;;;;;13.67;63.02;100738.03;5043234;28;45340;-67
2022/12/24 03:09:38;;;;;;;;;12.75;2.50;;;;;13.68;62.88;100748.44;5052322;28;45483;-67
2022/12/24 03:12:08;;;;;;;;;14.00;5.25;;;;;13.69;62.66;100751.97;5052495;28;45492;-67
2022/12/24 03:14:35;;;;;;;;;5.00;3.25;;;;;13.70;62.84;100748.41;5043123;28;45842;-67
2022/12/24 03:17:02;;;;;;;;;8.25;4.00;;;;;13.72;62.59;100754.44;5051574;28;45400;-67
2022/12/24 03:19:27;;;;;;;;;8.25;5.00;;;;;13.74;62.84;100744.75;5047870;28;45422;-67
2022/12/24 03:21:56;;;;;;;;;9.25;4.00;;;;;13.77;62.81;100749.00;5046409;28;67680;-68
2022/12/24 03:24:21;;;;;;;;;15.50;5.75;;;;;13.76;62.86;100748.16;5054148;28;45320;-67
2022/12/24 03:26:46;;;;;;;;;12.00;5.50;;;;;13.75;62.83;100742.97;5056077;28;48493;-67
2022/12/24 03:29:12;;;;;;;;;9.25;4.50;;;;;13.75;62.69;100729.81;5045325;28;49528;-67
2022/12/24 03:31:41;;;;;;;;;12.00;6.75;;;;;13.74;62.89;100735.97;5050586;28;65181;-67
2022/12/24 03:34:06;;;;;;;;;8.75;5.00;;;;;13.73;62.65;100739.53;5053390;28;45865;-68
2022/12/24 03:36:31;;;;;;;;;6.25;3.00;;;;;13.70;62.58;100737.88;5045215;28;54731;-68
2022/12/24 03:38:57;;;;;;;;;10.25;5.00;;;;;13.70;62.56;100737.88;5044014;28;64706;-67
2022/12/24 03:41:22;;;;;;;;;10.25;3.00;;;;;13.70;62.98;100745.75;5049707;28;69520;-67
2022/12/24 03:43:47;;;;;;;;;9.75;6.00;;;;;13.71;62.38;100759.78;5038202;28;66892;-68
2022/12/24 03:46:13;;;;;;;;;11.00;4.75;;;;;13.66;62.82;100755.56;5050493;28;62830;-67
2022/12/24 03:48:38;;;;;;;;;10.25;5.25;;;;;13.66;62.80;100763.44;5044769;28;61095;-67
2022/12/24 03:51:04;;;;;;;;;13.25;6.00;;;;;13.68;62.63;100756.34;5039198;28;56395;-68
2022/12/24 03:53:29;;;;;;;;;11.25;5.50;;;;;13.71;62.55;100757.16;5045677;28;45434;-67
2022/12/24 03:55:55;;;;;;;;;8.50;5.25;;;;;13.73;62.92;100756.16;5040077;28;45332;-67
2022/12/24 03:58:20;;;;;;;;;7.75;6.00;;;;;13.74;62.76;100757.03;5044394;28;45155;-67
2022/12/24 04:00:45;;;;;;;;;12.75;4.00;;;;;13.75;62.76;100766.63;5042332;28;61445;-68
2022/12/24 04:03:11;;;;;;;;;7.00;3.75;;;;;13.76;62.92;100763.94;5045831;28;45383;-69
2022/12/24 04:05:36;;;;;;;;;15.25;7.00;;;;;13.77;62.84;100770.06;5039070;28;63778;-68
2022/12/24 04:08:01;;;;;;;;;8.75;5.25;;;;;13.76;62.42;100768.38;5045326;28;61329;-68
2022/12/24 04:10:27;;;;;;;;;12.50;6.00;;;;;13.74;62.62;100770.16;5043667;28;58762;-68
2022/12/24 04:12:52;;;;;;;;;4.75;4.00;;;;;13.73;62.93;100776.38;5040113;28;64866;-67
2022/12/24 04:15:17;;;;;;;;;8.00;4.75;;;;;13.71;62.91;100779.06;5047356;28;62006;-67
2022/12/24 04:17:43;;;;;;;;;8.50;5.25;;;;;13.70;62.41;100779.09;5044848;28;57623;-68
2022/12/24 04:20:08;;;;;;;;;7.50;5.75;;;;;13.69;62.58;100786.16;5048657;28;61791;-68
2022/12/24 04:22:34;;;;;;;;;13.25;7.00;;;;;13.69;62.81;100788.78;5043129;28;45761;-68
2022/12/24 04:24:59;;;;;;;;;6.25;5.00;;;;;13.68;62.53;100784.41;5047336;28;52710;-68
2022/12/24 04:27:24;;;;;;;;;10.00;6.00;;;;;13.67;62.51;100790.63;5046881;28;45497;-68
2022/12/24 04:29:50;;;;;;;;;11.25;3.50;;;;;13.65;62.64;100795.06;5038822;28;61445;-67
2022/12/24 04:32:15;;;;;;;;;12.00;6.75;;;;;13.61;62.74;100793.47;5045991;28;45457;-67
2022/12/24 04:34:40;;;;;;;;;8.50;6.00;;;;;13.62;62.83;100790.78;5046616;28;45338;-68
2022/12/24 04:37:06;;;;;;;;;6.25;3.25;;;;;13.62;62.87;100800.44;5044802;28;65012;-67
2022/12/24 04:39:31;;;;;;;;;6.25;4.75;;;;;13.63;62.95;100812.66;5038725;28;67550;-67
2022/12/24 04:41:56;;;;;;;;;9.75;3.00;;;;;13.61;63.05;100806.63;5039597;28;63399;-68
2022/12/24 04:44:22;;;;;;;;;10.50;6.25;;;;;13.60;62.88;100802.28;5044811;28;62278;-68
2022/12/24 04:46:47;;;;;;;;;11.75;4.50;;;;;13.60;62.85;100810.19;5050469;28;60972;-67
2022/12/24 04:49:12;;;;;;;;;10.75;5.50;;;;;13.63;63.16;100815.28;5044736;28;59280;-68
2022/12/24 04:51:38;;;;;;;;;9.75;5.00;;;;;13.62;62.70;100821.50;5049413;28;57535;-68
2022/12/24 04:54:03;;;;;;;;;9.75;6.00;;;;;13.61;62.74;100804.84;5045212;28;61996;-68
2022/12/24 04:56:30;;;;;;;;;13.00;4.00;;;;;13.62;62.67;100808.34;5043724;28;63433;-68
2022/12/24 04:58:57;;;;;;;;;11.00;5.00;;;;;13.59;63.00;100811.94;5040965;28;45522;-67
2022/12/24 05:01:27;;;;;;;;;14.25;5.00;;;;;13.58;62.89;100807.59;5051688;28;45289;-67
2022/12/24 05:03:53;;;;;;;;;8.00;4.25;;;;;13.58;63.09;100809.34;5041902;28;45349;-68
2022/12/24 05:06:22;;;;;;;;;3.00;2.25;;;;;13.58;62.69;100809.34;5052348;28;45523;-68
2022/12/24 05:08:47;;;;;;;;;10.75;5.00;;;;;13.57;63.23;100811.13;5041072;28;45298;-67
2022/12/24 05:11:14;;;;;;;;;9.25;5.00;;;;;13.57;63.15;100820.81;5046745;28;45357;-68
2022/12/24 05:13:41;;;;;;;;;13.50;6.50;;;;;13.58;63.08;100825.13;5047601;28;45521;-67
2022/12/24 05:16:07;;;;;;;;;8.50;4.75;;;;;13.58;63.20;100822.50;5047559;28;45375;-67
2022/12/24 05:18:33;;;;;;;;;10.25;4.25;;;;;13.57;62.88;100820.81;5039788;28;45439;-68
2022/12/24 05:20:58;;;;;;;;;7.50;3.75;;;;;13.57;63.16;100816.41;5048578;28;54074;-67
2022/12/24 05:26:23;;;;;;;;;8.50;4.75;;;;;13.62;63.01;100814.44;5038184;28;45319;-68
2022/12/24 05:28:54;;;;;;;;;9.25;3.50;;;;;13.61;63.43;100812.72;5052781;28;46142;-67
2022/12/24 05:31:21;;;;;;;;;12.75;5.00;;;;;13.60;63.40;100800.50;5045863;28;45363;-67
2022/12/24 05:33:46;;;;;;;;;9.00;5.25;;;;;13.60;62.98;100802.28;5042770;28;45276;-67
2022/12/24 05:36:12;;;;;;;;;4.50;3.25;;;;;13.60;63.40;100805.75;5045735;28;45391;-67
2022/12/24 05:38:38;;;;;;;;;10.75;5.75;;;;;13.63;63.47;100807.41;5038896;28;45508;-67
2022/12/24 05:41:04;;;;;;;;;13.75;5.50;;;;;13.63;63.38;100802.16;5042125;28;45245;-68
2022/12/24 05:43:29;;;;;;;;;10.25;5.00;;;;;13.63;63.02;100794.25;5047679;28;45343;-67
2022/12/24 05:45:59;;;;;;;;;9.00;5.00;;;;;13.63;63.39;100802.16;5046086;28;45455;-68
2022/12/24 05:48:24;;;;;;;;;9.50;6.00;;;;;13.62;63.42;100798.66;5047876;28;46198;-67
2022/12/24 05:50:50;;;;;;;;;9.50;5.00;;;;;13.62;63.49;100803.09;5041985;28;45257;-67
2022/12/24 05:53:15;;;;;;;;;13.50;5.25;;;;;13.60;63.80;100795.25;5050012;28;56926;-67
2022/12/24 05:55:40;;;;;;;;;9.50;5.75;;;;;13.62;63.86;100793.41;5043077;28;58227;-68
2022/12/24 05:58:06;;;;;;;;;13.50;6.25;;;;;13.62;63.90;100785.53;5048263;28;53863;-67
2022/12/24 06:00:31;;;;;;;;;9.25;3.50;;;;;13.62;64.00;100782.91;5055304;28;45221;-67
2022/12/24 06:02:56;;;;;;;;;11.75;5.25;;;;;13.63;63.85;100789.00;5044336;28;58852;-68
2022/12/24 06:05:22;;;;;;;;;8.50;5.50;;;;;13.62;63.80;100790.78;5041961;28;60458;-68
2022/12/24 06:07:47;;;;;;;;;10.25;4.00;;;;;13.62;64.03;100796.03;5046618;28;45450;-67
2022/12/24 06:10:12;;;;;;;;;8.50;4.50;;;;;13.60;64.18;100784.72;5059967;28;58513;-67
2022/12/24 06:12:38;;;;;;;;;11.00;8.75;;;;;13.61;64.25;100790.84;5062606;28;56692;-67
2022/12/24 06:15:04;;;;;;;;;11.75;5.00;;;;;13.61;63.97;100791.69;5048500;28;45259;-68
2022/12/24 06:17:30;;;;;;;;;15.25;5.00;;;;;13.61;63.74;100794.31;5049961;28;45551;-68
2022/12/24 06:19:55;;;;;;;;;9.00;5.75;;;;;13.61;63.83;100807.47;5050034;28;66285;-68
2022/12/24 06:22:20;;;;;;;;;13.00;5.75;;;;;13.62;63.76;100805.72;5050999;28;56162;-68
2022/12/24 06:24:45;;;;;;;;;13.50;6.00;;;;;13.60;64.18;100800.50;5040964;28;58812;-68
2022/12/24 06:27:11;;;;;;;;;7.75;4.75;;;;;13.60;64.11;100800.50;5048932;28;66699;-68
2022/12/24 06:29:36;;;;;;;;;11.50;6.00;;;;;13.58;63.92;100804.97;5042675;28;63769;-68
2022/12/24 06:32:01;;;;;;;;;11.75;4.25;;;;;13.58;64.30;100798.84;5043885;28;45338;-68
2022/12/24 06:34:27;;;;;;;;;11.00;6.00;;;;;13.58;64.11;100796.22;5048465;28;53075;-68
2022/12/24 06:36:52;;;;;;;;;6.25;3.50;;;;;13.53;63.99;100785.88;5051525;28;54783;-67
2022/12/24 06:39:17;;;;;;;;;12.75;5.00;;;;;13.54;64.05;100792.84;5047708;28;45450;-67
2022/12/24 06:41:43;;;;;;;;;8.25;3.00;;;;;13.51;63.92;100790.34;5041835;28;60342;-68
2022/12/24 06:44:08;;;;;;;;;6.25;3.00;;;;;13.47;64.23;100789.63;5045704;28;45435;-68
2022/12/24 06:46:34;;;;;;;;;9.25;3.75;;;;;13.46;63.90;100781.78;5043357;28;45402;-68
2022/12/24 06:48:59;;;;;;;;;9.50;5.25;;;;;13.44;64.05;100776.56;5044610;28;45565;-68
2022/12/24 06:51:25;;;;;;;;;9.25;4.00;;;;;13.44;63.91;100791.50;5051961;28;57698;-68
2022/12/24 06:53:50;;;;;;;;;11.50;4.50;;;;;13.42;64.19;100781.03;5041793;28;46260;-68
2022/12/24 06:56:15;;;;;;;;;7.25;5.25;;;;;13.42;64.25;100780.16;5048538;28;45514;-68
2022/12/24 06:58:42;;;;;;;;;6.75;3.50;;;;;13.41;64.23;100787.19;5045343;28;45236;-68
2022/12/24 07:01:10;;;;;;;;;8.25;4.50;;;;;13.40;63.84;100795.13;5052332;28;45414;-68
2022/12/24 07:03:36;;;;;;;;;11.50;4.75;;;;;13.39;63.87;100791.66;5041886;28;45523;-67
2022/12/24 07:06:01;;;;;;;;;8.00;2.50;;;;;13.39;63.97;100796.06;5039874;28;68311;-67
2022/12/24 07:08:26;;;;;;;;;4.75;2.00;;;;;13.38;63.81;100795.19;5052191;28;64464;-67
2022/12/24 07:10:52;;;;;;;;;9.00;2.50;;;;;13.38;64.11;100787.31;5046067;28;55273;-67
2022/12/24 07:13:18;;;;;;;;;4.50;2.25;;;;;13.38;63.62;100796.97;5040791;28;45450;-68
2022/12/24 07:15:44;;;;;;;;;6.50;4.00;;;;;13.36;63.39;100804.91;5050271;28;46942;-67
2022/12/24 07:18:09;;;;;;;;;8.75;2.00;;;;;13.36;63.56;100798.81;5048727;28;45312;-67
2022/12/24 07:20:35;;;;;;;;;7.25;2.00;;;;;13.34;63.74;100812.00;5050751;28;45482;-68
2022/12/24 07:23:00;;;;;;;;;3.25;2.00;;;;;13.35;63.85;100811.09;5052796;28;56846;-67
2022/12/24 07:25:26;;;;;;;;;7.00;4.25;;;;;13.34;63.52;100811.16;5051293;28;45994;-67
2022/12/24 07:27:51;;;;;;;;;4.00;3.00;;;;;13.33;63.60;100820.78;5046685;28;59317;-68
2022/12/24 07:30:17;;;;;;;;;5.25;3.00;;;;;13.34;63.50;100809.38;5055739;28;45499;-68
2022/12/24 07:32:42;;;;;;;;;9.75;3.00;;;;;13.34;63.71;100812.00;5043652;28;62899;-67
2022/12/24 07:35:07;;;;;;;;;4.50;3.00;;;;;13.34;63.27;100808.53;5043181;28;46126;-69
2022/12/24 07:37:33;;;;;;;;;3.50;1.00;;;;;13.34;63.63;100811.16;5051222;28;45394;-67
2022/12/24 07:39:58;;;;;;;;;6.00;2.00;;;;;13.35;63.74;100824.25;5045321;28;60715;-67
2022/12/24 07:42:23;;;;;;;;;1.75;1.75;;;;;13.33;63.36;100828.69;5048940;28;60485;-67
2022/12/24 07:44:49;;;;;;;;;7.25;2.00;;;;;13.35;63.55;100831.25;5044789;28;46180;-67
2022/12/24 07:47:14;;;;;;;;;3.00;2.00;;;;;13.38;63.80;100834.63;5042940;28;45340;-67
2022/12/24 07:49:40;;;;;;;;;4.75;2.25;;;;;13.40;63.08;100834.56;5047867;28;60878;-68
2022/12/24 07:52:05;;;;;;;;;4.00;1.00;;;;;13.42;63.02;100848.50;5039927;28;65882;-67
2022/12/24 07:54:30;;;;;;;;;3.00;1.25;;;;;13.41;63.15;100838.94;5047064;28;45260;-67
2022/12/24 07:56:56;;;;;;;;;3.75;2.50;;;;;13.41;63.26;100836.31;5050028;28;45301;-67
2022/12/24 07:59:21;;;;;;;;;6.50;1.75;;;;;13.39;63.32;100831.09;5049346;28;50069;-67
2022/12/24 08:01:46;;;;;;;;;4.75;2.00;;;;;13.39;63.08;100836.34;5046868;28;45597;-67
2022/12/24 08:04:12;;;;;;;;;4.25;1.25;;;;;13.39;62.93;100846.03;5038991;28;46178;-67
2022/12/24 08:06:37;;;;;;;;;5.50;2.00;;;;;13.37;63.03;100846.06;5039516;28;68450;-67
2022/12/24 08:09:03;;;;;;;;;1.00;1.00;;;;;13.38;63.02;100846.91;5039807;28;45398;-67
2022/12/24 08:11:28;;;;;;;;;5.50;2.25;;;;;13.39;63.19;100846.03;5046125;28;45501;-67
2022/12/24 08:13:54;;;;;;;;;5.25;2.50;;;;;13.40;62.87;100848.59;5046457;28;46619;-67
2022/12/24 08:16:19;;;;;;;;;8.50;2.75;;;;;13.41;62.92;100849.44;5052395;28;56457;-69
2022/12/24 08:18:45;;;;;;;;;7.75;2.00;;;;;13.41;62.93;100852.91;5051695;28;45240;-68
2022/12/24 08:21:10;;;;;;;;;4.00;2.00;;;;;13.45;62.84;100862.41;5043505;28;65083;-67
2022/12/24 08:23:36;;;;;;;;;8.25;1.25;;;;;13.46;63.20;100861.50;5048448;28;61780;-67
2022/12/24 08:26:02;;;;;;;;;3.25;1.00;;;;;13.48;62.98;100869.34;5045246;28;45213;-68
2022/12/24 08:28:27;;;;;;;;;7.75;2.00;;;;;13.47;63.11;100864.97;5040171;28;45381;-68
2022/12/24 08:30:53;;;;;;;;;3.75;1.25;;;;;13.50;62.66;100870.13;5049691;28;45209;-67
2022/12/24 08:33:19;;;;;;;;;3.00;3.00;;;;;13.52;62.90;100881.44;5043943;28;51374;-67
2022/12/24 08:35:53;;;;;;;;;3.00;1.00;;;;;13.54;62.58;100874.34;5048657;28;45907;-68
2022/12/24 08:38:19;;;;;;;;;5.00;2.00;;;;;13.57;62.73;100887.38;5044700;28;45261;-68
2022/12/24 08:40:46;;;;;;;;;5.25;2.25;;;;;13.58;62.64;100886.50;5027609;28;45451;-67
2022/12/24 08:43:11;;;;;;;;;2.25;1.50;;;;;13.59;62.46;100885.56;5047221;28;46159;-67
2022/12/24 08:45:37;;;;;;;;;4.75;1.00;;;;;13.61;62.50;100893.38;5050512;28;45451;-67
2022/12/24 08:48:03;;;;;;;;;3.50;1.00;;;;;13.64;62.53;100902.03;5044717;28;46038;-68
2022/12/24 08:50:28;;;;;;;;;1.00;1.00;;;;;13.64;62.27;100899.41;5046158;28;45397;-68
2022/12/24 08:52:54;;;;;;;;;2.75;2.00;;;;;13.67;62.27;100899.28;5049348;28;46256;-67
2022/12/24 08:55:19;;;;;;;;;5.75;2.50;;;;;13.68;62.74;100895.72;5039381;28;57771;-68
2022/12/24 08:57:44;;;;;;;;;4.00;1.50;;;;;13.71;62.78;100910.56;5044167;28;52686;-67
2022/12/24 09:00:11;;;;;;;;;4.25;2.00;;;;;13.70;62.36;100908.81;5047985;28;63691;-68
2022/12/24 09:02:36;;;;;;;;;2.75;2.00;;;;;13.73;62.20;100916.59;5041964;28;46015;-67
2022/12/24 09:05:02;;;;;;;;;5.25;1.00;;;;;13.74;62.46;100923.59;5037258;28;61714;-67
2022/12/24 09:07:28;;;;;;;;;7.00;3.50;;;;;13.73;62.13;100931.53;5041472;28;45889;-67
2022/12/24 09:09:53;;;;;;;;;5.50;2.00;;;;;13.72;62.63;100935.91;5051815;28;45509;-67
2022/12/24 09:12:18;;;;;;;;;2.25;2.25;;;;;13.72;62.26;100933.28;5042790;28;62067;-67
2022/12/24 09:14:44;;;;;;;;;5.25;2.00;;;;;13.75;62.51;100937.59;5042504;28;45313;-67
2022/12/24 09:17:09;;;;;;;;;7.00;2.00;;;;;13.75;62.11;100941.06;5043075;28;50512;-67
2022/12/24 09:19:34;;;;;;;;;5.25;2.50;;;;;13.75;62.49;100942.84;5044724;28;64411;-67
2022/12/24 09:22:00;;;;;;;;;3.00;2.00;;;;;13.74;62.44;100943.75;5054465;28;45893;-67
2022/12/24 09:24:25;;;;;;;;;5.25;3.25;;;;;13.71;61.92;100944.75;5049027;28;45308;-67
2022/12/24 09:26:50;;;;;;;;;4.00;2.00;;;;;13.72;62.52;100945.59;5048322;28;45594;-67
2022/12/24 09:29:16;;;;;;;;;5.25;4.25;;;;;13.71;62.50;100952.63;5051166;28;45521;-68
2022/12/24 09:31:41;;;;;;;;;5.25;2.00;;;;;13.74;62.12;100964.81;5048135;28;46116;-66
2022/12/24 09:34:07;;;;;;;;;4.00;1.00;;;;;13.73;61.98;100958.69;5048972;28;45313;-67
2022/12/24 09:36:33;;;;;;;;;3.25;1.00;;;;;13.74;62.47;100963.06;5052902;28;45918;-67
2022/12/24 09:38:58;;;;;;;;;7.75;2.75;;;;;13.74;62.34;100959.53;5044285;28;45538;-66
2022/12/24 09:41:38;;;;;;;;;3.00;2.50;;;;;13.75;62.13;100962.13;5046809;28;65013;-63
2022/12/24 09:44:13;;;;;;;;;2.25;2.00;;;;;13.75;62.37;100970.00;5031579;28;45255;-64
2022/12/24 09:46:41;;;;;;;;;3.00;1.25;;;;;13.74;62.12;100967.44;5046295;28;45246;-65
2022/12/24 09:49:16;;;;;;;;;6.50;1.00;;;;;13.71;61.82;100960.53;5027373;28;45330;-65
2022/12/24 09:51:55;;;;;;;;;5.00;2.00;;;;;13.71;62.37;100959.69;5052233;28;47046;-64
2022/12/24 09:54:30;;;;;;;;;3.00;2.25;;;;;13.74;62.29;100954.28;5037715;28;45479;-65
2022/12/24 09:57:00;;;;;;;;;3.25;2.00;;;;;13.76;62.17;100953.31;5051764;28;45470;-65
2022/12/24 09:59:38;;;;;;;;;3.75;2.00;;;;;13.79;62.14;100957.59;5043855;28;45578;-64
2022/12/24 10:02:10;;;;;;;;;5.00;2.00;;;;;13.82;62.31;100954.88;5046715;28;47109;-64
2022/12/24 10:04:36;;;;;;;;;1.75;1.75;;;;;13.84;62.60;100951.25;5050171;28;45440;-67
2022/12/24 10:07:05;;;;;;;;;3.25;1.00;;;;;13.86;61.98;100956.47;5048974;28;45551;-67
2022/12/24 10:10:08;;;;;;;;;8.25;2.00;;;;;13.84;62.45;100953.88;5049754;28;45514;-68
2022/12/24 10:13:06;;;;;;;;;3.75;1.75;;;;;13.88;62.43;100954.63;5039615;28;47929;-67
2022/12/24 10:15:39;;;;;;;;;9.75;5.00;;;;;13.89;62.42;100956.34;5033623;28;45645;-68
2022/12/24 10:18:34;;;;;;;;;3.75;3.00;;;;;13.90;62.21;100958.09;5050394;28;45493;-69
2022/12/24 10:21:15;;;;;;;;;6.00;3.25;;;;;13.92;62.61;100963.28;5029220;28;45796;-69
2022/12/24 10:23:48;;;;;;;;;5.25;1.75;;;;;13.94;62.31;100958.81;5043006;28;45817;-70
2022/12/24 10:26:19;;;;;;;;;3.50;1.50;;;;;13.96;62.18;100967.50;5043682;28;46874;-68
2022/12/24 10:28:51;;;;;;;;;4.25;3.00;;;;;13.96;62.11;100965.72;5033757;28;45425;-69
2022/12/24 10:31:18;;;;;;;;;6.00;2.00;;;;;13.97;62.05;100961.31;5044537;28;45539;-69
2022/12/24 10:33:48;;;;;;;;;3.50;1.75;;;;;13.99;62.52;100967.41;5046548;28;45470;-71
2022/12/24 10:36:19;;;;;;;;;4.50;4.00;;;;;14.03;62.23;100964.59;5039310;28;45302;-68
2022/12/24 10:38:45;;;;;;;;;8.50;3.00;;;;;14.05;61.87;100964.53;5041505;28;45293;-69
2022/12/24 10:41:12;;;;;;;;;7.00;2.00;;;;;14.08;62.32;100966.16;5043548;28;45391;-69
2022/12/24 10:43:41;;;;;;;;;2.75;2.50;;;;;14.09;62.21;100955.59;5047056;28;45361;-64
2022/12/24 10:46:16;;;;;;;;;7.00;3.00;;;;;14.10;61.81;100944.16;5046767;28;45754;-65
2022/12/24 10:48:45;;;;;;;;;4.00;4.00;;;;;14.14;62.31;100955.44;5057745;28;45494;-62
2022/12/24 10:51:21;;;;;;;;;6.75;3.50;;;;;14.17;61.81;100961.44;5044531;28;45348;-63
2022/12/24 10:54:14;;;;;;;;;4.00;3.25;;;;;14.21;61.95;100967.44;5047916;28;46948;-64
2022/12/24 10:56:42;;;;;;;;;2.75;2.00;;;;;14.21;61.65;100970.91;5048096;28;45950;-65
2022/12/24 10:59:30;;;;;;;;;3.25;2.25;;;;;14.21;61.56;100955.13;5049330;28;45398;-64
2022/12/24 11:01:57;;;;;;;;;7.00;3.00;;;;;14.22;61.97;100951.59;5047539;28;48404;-65
2022/12/24 11:04:28;;;;;;;;;7.25;3.75;;;;;14.22;61.63;100950.75;5045783;28;46057;-66
2022/12/24 11:07:00;;;;;;;;;7.00;5.25;;;;;14.24;61.56;100946.25;5034736;28;45797;-66
2022/12/24 11:09:29;;;;;;;;;6.50;3.75;;;;;14.24;61.81;100939.22;5053528;28;45341;-65
2022/12/24 11:11:59;;;;;;;;;7.50;4.00;;;;;14.27;61.82;100937.38;5048153;28;45345;-65
2022/12/24 11:14:29;;;;;;;;;4.25;2.75;;;;;14.31;61.47;100936.34;5045373;28;46697;-65
2022/12/24 11:16:55;;;;;;;;;9.75;4.00;;;;;14.33;61.61;100938.00;5040627;28;45422;-66
2022/12/24 11:19:35;;;;;;;;;2.00;2.00;;;;;14.32;61.37;100945.97;5048242;28;45490;-66
2022/12/24 11:22:19;;;;;;;;;3.00;3.00;;;;;14.35;61.08;100945.84;5039905;28;45666;-64
2022/12/24 11:24:57;;;;;;;;;6.00;3.00;;;;;14.37;61.53;100922.94;5042835;28;46212;-66
2022/12/24 11:27:41;;;;;;;;;5.25;3.25;;;;;14.39;61.64;100924.59;5051475;28;45513;-64
2022/12/24 11:30:16;;;;;;;;;5.25;3.25;;;;;14.42;61.53;100931.50;5048769;28;45562;-63
2022/12/24 11:32:41;;;;;;;;;8.25;4.00;;;;;14.42;61.44;100928.88;5046829;28;45451;-62